Time;durP1;ratioP1;P1;durP2;ratioP2;P2;SDS_P1;SDS_P2;PMS_P1;PMS_P2;Temp;Humidity;BMP_temperature;BMP_pressure;BME280_temperature;BME280_humidity;BME280_pressure;Samples;Min_cycle;Max_cycle;Signal;HPM_P1;HPM_P2
2021/10/12 00:00:33;;;;;;;;;;;13.70;92.10;;;;;;4348245;32;44247;-81
2021/10/12 00:03:00;;;;;;;;;;;13.70;92.20;;;;;;4347800;32;44007;-80
2021/10/12 00:05:28;;;;;;;;;;;13.70;92.10;;;;;;4347968;32;43000;-80
2021/10/12 00:08:00;;;;;;;;;;;13.60;92.20;;;;;;4347697;32;43266;-80
2021/10/12 00:10:27;;;;;;;;;;;13.60;92.20;;;;;;4361416;32;44147;-81
2021/10/12 00:12:55;;;;;;;;;;;13.60;92.20;;;;;;4361083;32;43000;-81
2021/10/12 00:15:27;;;;;;;;;;;13.60;92.20;;;;;;4361247;32;43574;-80
2021/10/12 00:18:03;;;;;;;;;;;13.60;92.30;;;;;;4348048;32;42915;-80
2021/10/12 00:20:33;;;;;;;;;;;13.60;92.30;;;;;;4361753;32;20008;-80
2021/10/12 00:23:02;;;;;;;;;;;13.60;92.30;;;;;;4347830;32;43463;-80
2021/10/12 00:25:35;;;;;;;;;;;13.60;92.30;;;;;;4361207;32;43542;-80
2021/10/12 00:28:03;;;;;;;;;;;13.60;92.30;;;;;;4347649;32;43464;-80
2021/10/12 00:30:30;;;;;;;;;;;13.60;92.30;;;;;;4360843;32;43478;-80
2021/10/12 00:33:00;;;;;;;;;;;13.60;92.30;;;;;;4360691;32;44230;-80
2021/10/12 00:35:30;;;;;;;;;;;13.50;92.30;;;;;;4347561;32;43084;-80
2021/10/12 00:37:57;;;;;;;;;;;13.60;92.40;;;;;;4361088;32;44138;-80
2021/10/12 00:40:27;;;;;;;;;;;13.50;92.40;;;;;;4347702;32;42820;-80
2021/10/12 00:42:55;;;;;;;;;;;13.50;92.40;;;;;;4360691;32;42339;-80
2021/10/12 00:45:24;;;;;;;;;;;13.50;92.40;;;;;;4347249;32;43088;-80
2021/10/12 00:48:12;;;;;;;;;;;13.50;92.40;;;;;;4360701;32;43544;-80
2021/10/12 00:50:40;;;;;;;;;;;13.50;92.50;;;;;;4348108;32;20035;-80
2021/10/12 00:53:07;;;;;;;;;;;13.50;92.50;;;;;;4360895;32;44834;-80
2021/10/12 00:55:41;;;;;;;;;;;13.50;92.50;;;;;;4347151;32;42676;-81
2021/10/12 00:58:14;;;;;;;;;;;13.50;92.50;;;;;;4347384;32;44820;-80
2021/10/12 01:00:41;;;;;;;;;;;13.50;92.50;;;;;;4347145;32;43822;-81
2021/10/12 01:03:11;;;;;;;;;;;13.50;92.50;;;;;;4347244;32;43722;-80
2021/10/12 01:05:40;;;;;;;;;;;13.50;92.50;;;;;;4347105;32;43745;-80
2021/10/12 01:08:07;;;;;;;;;;;13.50;92.50;;;;;;4347104;32;42072;-80
2021/10/12 01:10:37;;;;;;;;;;;13.50;92.50;;;;;;4360575;32;44840;-80
2021/10/12 01:13:06;;;;;;;;;;;13.50;92.50;;;;;;4347135;32;42868;-81
2021/10/12 01:15:33;;;;;;;;;;;13.50;92.50;;;;;;4346766;32;44091;-80
2021/10/12 01:18:01;;;;;;;;;;;13.50;92.50;;;;;;4359935;32;45791;-80
2021/10/12 01:20:38;;;;;;;;;;;13.50;92.50;;;;;;4346740;32;45514;-80
2021/10/12 01:23:05;;;;;;;;;;;13.50;92.60;;;;;;4359987;32;44214;-80
2021/10/12 01:25:33;;;;;;;;;;;13.50;92.60;;;;;;4360004;32;44194;-80
2021/10/12 01:28:00;;;;;;;;;;;13.40;92.60;;;;;;4360579;32;43893;-80
2021/10/12 01:30:30;;;;;;;;;;;13.40;92.60;;;;;;4346561;32;42997;-80
2021/10/12 01:33:08;;;;;;;;;;;13.40;92.60;;;;;;4347450;32;43873;-80
2021/10/12 01:35:36;;;;;;;;;;;13.40;92.60;;;;;;4346594;32;42499;-80
2021/10/12 01:38:10;;;;;;;;;;;13.40;92.60;;;;;;4346681;32;42388;-80
2021/10/12 01:40:41;;;;;;;;;;;13.40;92.70;;;;;;4360274;32;44534;-80
2021/10/12 01:43:11;;;;;;;;;;;13.40;92.60;;;;;;4360094;32;44304;-80
2021/10/12 01:45:38;;;;;;;;;;;13.40;92.70;;;;;;4346443;32;42644;-80
2021/10/12 01:48:05;;;;;;;;;;;13.30;92.70;;;;;;4359899;32;43771;-80
2021/10/12 01:50:33;;;;;;;;;;;13.40;92.70;;;;;;4359985;32;43057;-80
2021/10/12 01:53:00;;;;;;;;;;;13.40;92.70;;;;;;4346842;32;43676;-80
2021/10/12 01:55:27;;;;;;;;;;;13.40;92.70;;;;;;4346794;32;43832;-80
2021/10/12 01:57:56;;;;;;;;;;;13.30;92.70;;;;;;4346744;32;45787;-80
2021/10/12 02:00:26;;;;;;;;;;;13.30;92.70;;;;;;4359763;33;43108;-81
2021/10/12 02:02:59;;;;;;;;;;;13.30;92.80;;;;;;4346390;33;44315;-81
2021/10/12 02:05:29;;;;;;;;;;;13.30;92.80;;;;;;4346841;33;44196;-81
2021/10/12 02:08:02;;;;;;;;;;;13.30;92.80;;;;;;4346760;33;44200;-80
2021/10/12 02:10:38;;;;;;;;;;;13.30;92.80;;;;;;4360281;33;44223;-81
2021/10/12 02:13:05;;;;;;;;;;;13.30;92.80;;;;;;4346432;33;44113;-81
2021/10/12 02:15:33;;;;;;;;;;;13.30;92.80;;;;;;4359781;33;42769;-81
2021/10/12 02:18:01;;;;;;;;;;;13.30;92.80;;;;;;4359568;33;44936;-80
2021/10/12 02:20:28;;;;;;;;;;;13.30;92.80;;;;;;4359873;33;42707;-80
2021/10/12 02:22:58;;;;;;;;;;;13.30;92.80;;;;;;4360817;33;20398;-80
2021/10/12 02:25:25;;;;;;;;;;;13.30;92.70;;;;;;4346304;33;43301;-80
2021/10/12 02:27:52;;;;;;;;;;;13.30;92.70;;;;;;4359882;33;43189;-81
2021/10/12 02:30:19;;;;;;;;;;;13.30;92.70;;;;;;4359694;33;43305;-81
2021/10/12 02:32:49;;;;;;;;;;;13.30;92.70;;;;;;4359441;33;42303;-80
2021/10/12 02:35:22;;;;;;;;;;;13.30;92.70;;;;;;4361418;32;43187;-81
2021/10/12 02:37:49;;;;;;;;;;;13.20;92.70;;;;;;4349444;32;44234;-81
2021/10/12 02:40:16;;;;;;;;;;;13.30;92.70;;;;;;4362569;32;42028;-81
2021/10/12 02:42:44;;;;;;;;;;;13.20;92.70;;;;;;4348932;32;42664;-80
2021/10/12 02:45:19;;;;;;;;;;;13.20;92.70;;;;;;4349177;32;42409;-80
2021/10/12 02:47:49;;;;;;;;;;;13.20;92.70;;;;;;4349297;32;43598;-80
2021/10/12 02:50:16;;;;;;;;;;;13.20;92.70;;;;;;4362097;32;42555;-80
2021/10/12 02:52:43;;;;;;;;;;;13.20;92.70;;;;;;4362327;32;43703;-80
2021/10/12 02:55:13;;;;;;;;;;;13.20;92.70;;;;;;4348701;32;43778;-80
2021/10/12 02:57:42;;;;;;;;;;;13.20;92.70;;;;;;4348664;32;44210;-80
2021/10/12 03:00:09;;;;;;;;;;;13.20;92.70;;;;;;4348966;32;42611;-80
2021/10/12 03:02:41;;;;;;;;;;;13.20;92.70;;;;;;4361976;32;43204;-80
2021/10/12 03:05:08;;;;;;;;;;;13.20;92.70;;;;;;4362438;32;44190;-80
2021/10/12 03:07:39;;;;;;;;;;;13.10;92.70;;;;;;4361909;32;43920;-81
2021/10/12 03:10:09;;;;;;;;;;;13.10;92.70;;;;;;4361915;32;43790;-80
2021/10/12 03:12:41;;;;;;;;;;;13.10;92.70;;;;;;4361840;32;42999;-80
2021/10/12 03:15:09;;;;;;;;;;;13.10;92.80;;;;;;4362142;32;45221;-80
2021/10/12 03:17:44;;;;;;;;;;;13.10;92.80;;;;;;4348991;32;43987;-81
2021/10/12 03:20:11;;;;;;;;;;;13.10;92.80;;;;;;4362369;32;44245;-80
2021/10/12 03:22:39;;;;;;;;;;;13.00;92.80;;;;;;4362147;32;43549;-80
2021/10/12 03:25:08;;;;;;;;;;;13.00;92.90;;;;;;4362056;32;42759;-80
2021/10/12 03:27:35;;;;;;;;;;;13.00;92.90;;;;;;4361980;32;43881;-80
2021/10/12 03:30:03;;;;;;;;;;;13.00;92.80;;;;;;4348311;32;43588;-80
2021/10/12 03:32:33;;;;;;;;;;;13.10;92.90;;;;;;4362075;32;43663;-80
2021/10/12 03:35:00;;;;;;;;;;;13.00;92.80;;;;;;4361729;32;43641;-80
2021/10/12 03:37:31;;;;;;;;;;;13.00;92.80;;;;;;4361422;32;45520;-80
2021/10/12 03:40:02;;;;;;;;;;;13.00;92.80;;;;;;4361509;32;43661;-80
2021/10/12 03:42:29;;;;;;;;;;;13.00;92.90;;;;;;4348108;32;43988;-80
2021/10/12 03:44:56;;;;;;;;;;;13.00;92.90;;;;;;4361899;32;42573;-80
2021/10/12 03:47:29;;;;;;;;;;;13.00;92.90;;;;;;4347588;32;43143;-80
2021/10/12 03:49:56;;;;;;;;;;;13.00;92.90;;;;;;4348536;32;44409;-80
2021/10/12 03:52:26;;;;;;;;;;;13.00;92.90;;;;;;4348400;32;44265;-80
2021/10/12 03:54:59;;;;;;;;;;;13.00;92.90;;;;;;4349135;32;20015;-80
2021/10/12 03:57:31;;;;;;;;;;;13.00;92.90;;;;;;4348231;32;43772;-80
2021/10/12 03:59:58;;;;;;;;;;;13.00;92.90;;;;;;4361162;32;44199;-80
2021/10/12 04:02:28;;;;;;;;;;;13.00;92.90;;;;;;4361075;32;43802;-80
2021/10/12 04:05:00;;;;;;;;;;;13.00;92.90;;;;;;4361118;32;44271;-80
2021/10/12 04:07:28;;;;;;;;;;;13.00;92.90;;;;;;4348207;32;43373;-80
2021/10/12 04:09:59;;;;;;;;;;;13.00;92.90;;;;;;4361500;32;44560;-80
2021/10/12 04:12:27;;;;;;;;;;;12.90;92.90;;;;;;4361612;32;43925;-80
2021/10/12 04:14:56;;;;;;;;;;;12.90;92.90;;;;;;4347834;32;42320;-80
2021/10/12 04:17:27;;;;;;;;;;;12.90;92.90;;;;;;4347737;32;44224;-80
2021/10/12 04:20:02;;;;;;;;;;;12.90;92.90;;;;;;4348309;32;44115;-80
2021/10/12 04:22:29;;;;;;;;;;;13.00;92.90;;;;;;4347561;32;42771;-80
2021/10/12 04:24:56;;;;;;;;;;;12.90;92.90;;;;;;4362365;32;20047;-80
2021/10/12 04:27:27;;;;;;;;;;;12.90;92.90;;;;;;4361137;32;43722;-80
2021/10/12 04:29:54;;;;;;;;;;;12.90;93.00;;;;;;4360756;32;43141;-80
2021/10/12 04:32:27;;;;;;;;;;;12.90;93.00;;;;;;4348204;32;43448;-80
2021/10/12 04:34:56;;;;;;;;;;;12.90;93.00;;;;;;4347635;32;43245;-80
2021/10/12 04:37:26;;;;;;;;;;;12.90;93.00;;;;;;4347500;32;44231;-80
2021/10/12 04:39:53;;;;;;;;;;;12.90;93.00;;;;;;4360709;32;42297;-80
2021/10/12 04:42:23;;;;;;;;;;;12.90;93.00;;;;;;4347231;32;42859;-80
2021/10/12 04:44:56;;;;;;;;;;;12.90;93.00;;;;;;4360850;32;43667;-80
2021/10/12 04:47:23;;;;;;;;;;;12.90;93.00;;;;;;4347199;32;42804;-80
2021/10/12 04:49:51;;;;;;;;;;;12.90;93.00;;;;;;4360980;32;44195;-80
2021/10/12 04:52:23;;;;;;;;;;;12.90;93.00;;;;;;4360892;32;43447;-80
2021/10/12 04:54:50;;;;;;;;;;;12.80;93.00;;;;;;4361005;32;44191;-80
2021/10/12 04:57:22;;;;;;;;;;;12.80;93.00;;;;;;4360495;32;42866;-80
2021/10/12 04:59:49;;;;;;;;;;;12.80;93.10;;;;;;4361026;32;43755;-80
2021/10/12 05:02:16;;;;;;;;;;;12.80;93.10;;;;;;4344638;33;43994;-80
2021/10/12 05:04:46;;;;;;;;;;;12.80;93.10;;;;;;4345535;33;42514;-80
2021/10/12 05:07:13;;;;;;;;;;;12.80;93.10;;;;;;4345739;33;44990;-80
2021/10/12 05:09:41;;;;;;;;;;;12.80;93.10;;;;;;4344612;33;43727;-80
2021/10/12 05:12:13;;;;;;;;;;;12.80;93.10;;;;;;4344196;33;43345;-80
2021/10/12 05:14:40;;;;;;;;;;;12.80;93.10;;;;;;4344842;33;44300;-80
2021/10/12 05:17:20;;;;;;;;;;;12.80;93.10;;;;;;4345377;33;42865;-80
2021/10/12 05:19:50;;;;;;;;;;;12.80;93.10;;;;;;4344786;33;44184;-80
2021/10/12 05:22:23;;;;;;;;;;;12.80;93.10;;;;;;4345671;33;43913;-81
2021/10/12 05:24:50;;;;;;;;;;;12.80;93.10;;;;;;4345908;33;43514;-80
2021/10/12 05:27:25;;;;;;;;;;;12.80;93.10;;;;;;4345704;33;43205;-80
2021/10/12 05:29:58;;;;;;;;;;;12.70;93.10;;;;;;4345430;33;43508;-80
2021/10/12 05:32:28;;;;;;;;;;;12.70;93.10;;;;;;4344577;33;43377;-80
2021/10/12 05:34:56;;;;;;;;;;;12.70;93.20;;;;;;4345596;33;44185;-80
2021/10/12 05:37:29;;;;;;;;;;;12.70;93.20;;;;;;4345472;33;43667;-80
2021/10/12 05:39:59;;;;;;;;;;;12.70;93.20;;;;;;4343909;33;42967;-80
2021/10/12 05:42:26;;;;;;;;;;;12.70;93.20;;;;;;4345498;33;45826;-80
2021/10/12 05:44:59;;;;;;;;;;;12.70;93.20;;;;;;4344173;33;44032;-80
2021/10/12 05:47:41;;;;;;;;;;;12.70;93.20;;;;;;4344441;33;43482;-80
2021/10/12 05:50:11;;;;;;;;;;;12.70;93.20;;;;;;4345132;33;44234;-80
2021/10/12 05:52:46;;;;;;;;;;;12.70;93.20;;;;;;4344330;33;43903;-80
2021/10/12 05:55:30;;;;;;;;;;;12.70;93.20;;;;;;4344405;33;44236;-80
2021/10/12 05:58:13;;;;;;;;;;;12.60;93.20;;;;;;4345158;33;20001;-81
2021/10/12 06:00:43;;;;;;;;;;;12.70;93.20;;;;;;4344307;33;44228;-80
2021/10/12 06:03:21;;;;;;;;;;;12.60;93.20;;;;;;4343761;33;44857;-80
2021/10/12 06:06:02;;;;;;;;;;;12.60;93.20;;;;;;4345309;33;45826;-80
2021/10/12 06:08:37;;;;;;;;;;;12.60;93.20;;;;;;4343999;33;45781;-80
2021/10/12 06:11:16;;;;;;;;;;;12.60;93.30;;;;;;4347091;33;45049;-80
2021/10/12 06:13:46;;;;;;;;;;;12.60;93.30;;;;;;4347047;33;43529;-80
2021/10/12 06:16:16;;;;;;;;;;;12.60;93.30;;;;;;4347196;33;44723;-80
2021/10/12 06:18:52;;;;;;;;;;;12.60;93.30;;;;;;4348159;33;44201;-80
2021/10/12 06:21:26;;;;;;;;;;;12.60;93.30;;;;;;4346844;33;42835;-80
2021/10/12 06:24:08;;;;;;;;;;;12.60;93.30;;;;;;4348173;33;44776;-80
2021/10/12 06:26:46;;;;;;;;;;;12.60;93.40;;;;;;4348162;33;44479;-80
2021/10/12 06:29:25;;;;;;;;;;;12.60;93.40;;;;;;4347901;33;20002;-80
2021/10/12 06:32:03;;;;;;;;;;;12.60;93.40;;;;;;4348130;33;44848;-80
2021/10/12 06:34:39;;;;;;;;;;;12.50;93.30;;;;;;4347199;33;43913;-80
2021/10/12 06:37:15;;;;;;;;;;;12.60;93.40;;;;;;4346782;33;44804;-80
2021/10/12 06:39:54;;;;;;;;;;;12.50;93.40;;;;;;4347931;33;43396;-80
2021/10/12 06:42:30;;;;;;;;;;;12.50;93.40;;;;;;4346975;33;45457;-80
2021/10/12 06:45:11;;;;;;;;;;;12.50;93.40;;;;;;4346920;33;43229;-80
2021/10/12 06:47:43;;;;;;;;;;;12.50;93.40;;;;;;4348042;33;45275;-80
2021/10/12 06:50:15;;;;;;;;;;;12.50;93.50;;;;;;4347813;33;44411;-80
2021/10/12 06:52:54;;;;;;;;;;;12.50;93.50;;;;;;4347744;33;43473;-80
2021/10/12 06:55:27;;;;;;;;;;;12.50;93.50;;;;;;4347680;33;46037;-80
2021/10/12 06:58:11;;;;;;;;;;;12.50;93.50;;;;;;4346455;33;43641;-80
2021/10/12 07:00:41;;;;;;;;;;;12.50;93.50;;;;;;4347773;33;20063;-78
2021/10/12 07:03:22;;;;;;;;;;;12.50;93.50;;;;;;4345911;33;45965;-79
2021/10/12 07:05:58;;;;;;;;;;;12.50;93.50;;;;;;4346429;33;42215;-80
2021/10/12 07:08:33;;;;;;;;;;;12.50;93.50;;;;;;4347707;33;44233;-80
2021/10/12 07:11:09;;;;;;;;;;;12.50;93.50;;;;;;4347657;33;43942;-80
2021/10/12 07:13:39;;;;;;;;;;;12.50;93.50;;;;;;4346705;33;44406;-81
2021/10/12 07:16:15;;;;;;;;;;;12.50;93.50;;;;;;4347427;33;44994;-80
2021/10/12 07:18:51;;;;;;;;;;;12.50;93.50;;;;;;4346375;33;43208;-80
2021/10/12 07:21:33;;;;;;;;;;;12.50;93.50;;;;;;4346377;33;44291;-80
2021/10/12 07:24:11;;;;;;;;;;;12.50;93.60;;;;;;4345892;33;42737;-79
2021/10/12 07:26:49;;;;;;;;;;;12.50;93.60;;;;;;4347361;33;44107;-80
2021/10/12 07:29:22;;;;;;;;;;;12.40;93.60;;;;;;4347299;33;41827;-80
2021/10/12 07:32:00;;;;;;;;;;;12.40;93.60;;;;;;4348360;33;19998;-80
2021/10/12 07:34:41;;;;;;;;;;;12.40;93.70;;;;;;4346168;33;44192;-80
2021/10/12 07:37:25;;;;;;;;;;;12.40;93.70;;;;;;4346108;33;44195;-80
2021/10/12 07:40:01;;;;;;;;;;;12.40;93.70;;;;;;4347264;33;43244;-80
2021/10/12 07:42:37;;;;;;;;;;;12.40;93.70;;;;;;4346051;33;45244;-79
2021/10/12 07:45:09;;;;;;;;;;;12.40;93.80;;;;;;4346281;33;43848;-80
2021/10/12 07:47:42;;;;;;;;;;;12.40;93.80;;;;;;4345879;33;46087;-80
2021/10/12 07:50:20;;;;;;;;;;;12.40;93.80;;;;;;4347002;33;44644;-82
2021/10/12 07:52:53;;;;;;;;;;;12.40;93.80;;;;;;4346940;33;45971;-80
2021/10/12 07:55:41;;;;;;;;;;;12.40;93.80;;;;;;4346866;33;44735;-79
2021/10/12 07:58:14;;;;;;;;;;;12.40;93.80;;;;;;4345332;33;45417;-79
2021/10/12 08:00:52;;;;;;;;;;;12.40;93.80;;;;;;4345732;33;43474;-80
2021/10/12 08:03:27;;;;;;;;;;;12.40;93.80;;;;;;4345100;33;43742;-80
2021/10/12 08:06:05;;;;;;;;;;;12.40;93.80;;;;;;4345909;33;43211;-80
2021/10/12 08:08:32;;;;;;;;;;;12.40;93.90;;;;;;4345546;33;44292;-80
2021/10/12 08:11:11;;;;;;;;;;;12.40;93.90;;;;;;4345701;33;44649;-80
2021/10/12 08:13:52;;;;;;;;;;;12.40;93.90;;;;;;4345582;33;44462;-80
2021/10/12 08:16:29;;;;;;;;;;;12.40;94.00;;;;;;4345465;33;44096;-79
2021/10/12 08:19:03;;;;;;;;;;;12.50;94.00;;;;;;4345585;33;44533;-80
2021/10/12 08:21:42;;;;;;;;;;;12.50;94.00;;;;;;4346371;33;43446;-80
2021/10/12 08:24:20;;;;;;;;;;;12.50;94.00;;;;;;4345419;33;43575;-80
2021/10/12 08:26:59;;;;;;;;;;;12.50;94.00;;;;;;4344965;33;42924;-80
2021/10/12 08:29:37;;;;;;;;;;;12.50;94.00;;;;;;4345497;33;44847;-80
2021/10/12 08:32:12;;;;;;;;;;;12.50;94.00;;;;;;4346550;33;20009;-80
2021/10/12 08:34:40;;;;;;;;;;;12.50;94.10;;;;;;4345345;33;45822;-80
2021/10/12 08:37:16;;;;;;;;;;;12.50;94.10;;;;;;4345156;33;45730;-80
2021/10/12 08:39:46;;;;;;;;;;;12.50;94.10;;;;;;4346245;33;42511;-80
2021/10/12 08:42:36;;;;;;;;;;;12.50;94.10;;;;;;4345189;33;45685;-80
2021/10/12 08:45:12;;;;;;;;;;;12.60;94.10;;;;;;4346125;33;44218;-79
2021/10/12 08:47:50;;;;;;;;;;;12.60;94.20;;;;;;4345183;33;43485;-80
2021/10/12 08:50:27;;;;;;;;;;;12.60;94.20;;;;;;4344990;33;46449;-80
2021/10/12 08:53:09;;;;;;;;;;;12.60;94.20;;;;;;4345203;33;43200;-80
2021/10/12 08:55:39;;;;;;;;;;;12.60;94.60;;;;;;4345014;33;44236;-81
2021/10/12 08:58:12;;;;;;;;;;;12.60;94.20;;;;;;4344986;33;44842;-81
2021/10/12 09:00:42;;;;;;;;;;;12.60;94.30;;;;;;4345168;33;45845;-79
2021/10/12 09:05:59;;;;;;;;;;;12.60;94.30;;;;;;4345786;33;43598;-80
2021/10/12 09:08:35;;;;;;;;;;;12.60;94.40;;;;;;4345951;33;44926;-81
2021/10/12 09:11:09;;;;;;;;;;;12.60;94.40;;;;;;4344817;33;45800;-80
2021/10/12 09:13:49;;;;;;;;;;;12.60;94.40;;;;;;4344829;33;43242;-81
2021/10/12 09:16:18;;;;;;;;;;;12.70;94.40;;;;;;4344314;33;42816;-80
2021/10/12 09:18:52;;;;;;;;;;;12.70;94.50;;;;;;4344523;33;46051;-80
2021/10/12 09:21:25;;;;;;;;;;;12.70;94.50;;;;;;4344605;33;45781;-80
2021/10/12 09:24:11;;;;;;;;;;;12.70;94.50;;;;;;4344577;33;45320;-80
2021/10/12 09:26:44;;;;;;;;;;;12.70;94.50;;;;;;4344603;33;43024;-81
2021/10/12 09:29:24;;;;;;;;;;;12.70;94.50;;;;;;4344573;33;43105;-81
2021/10/12 09:31:59;;;;;;;;;;;12.70;94.50;;;;;;4344578;33;43887;-80
2021/10/12 09:34:34;;;;;;;;;;;12.70;94.50;;;;;;4345386;33;20427;-81
2021/10/12 09:37:10;;;;;;;;;;;12.70;94.60;;;;;;4344583;33;44150;-80
2021/10/12 09:39:46;;;;;;;;;;;12.70;94.60;;;;;;4345657;33;43505;-80
2021/10/12 09:42:17;;;;;;;;;;;12.70;94.60;;;;;;4344553;33;43304;-81
2021/10/12 09:44:54;;;;;;;;;;;12.70;94.70;;;;;;4344819;33;45264;-81
2021/10/12 09:47:24;;;;;;;;;;;12.70;94.70;;;;;;4345408;33;43474;-80
2021/10/12 09:50:14;;;;;;;;;;;12.70;94.70;;;;;;4344911;33;42857;-80
2021/10/12 09:52:52;;;;;;;;;;;12.80;94.80;;;;;;4344079;33;42126;-80
2021/10/12 09:55:45;;;;;;;;;;;12.80;94.80;;;;;;4345463;33;46430;-80
2021/10/12 09:58:20;;;;;;;;;;;12.70;94.80;;;;;;4345344;33;41718;-79
2021/10/12 10:00:59;;;;;;;;;;;12.80;94.80;;;;;;4344276;33;44192;-79
2021/10/12 10:03:32;;;;;;;;;;;12.80;94.90;;;;;;4359162;32;44377;-80
2021/10/12 10:06:21;;;;;;;;;;;12.80;94.90;;;;;;4346306;33;42978;-80
2021/10/12 10:08:49;;;;;;;;;;;12.80;94.90;;;;;;4360189;33;43938;-80
2021/10/12 10:11:36;;;;;;;;;;;12.80;94.90;;;;;;4348616;33;43060;-80
2021/10/12 10:14:05;;;;;;;;;;;12.80;94.90;;;;;;4346550;33;43195;-80
2021/10/12 10:16:33;;;;;;;;;;;12.80;95.00;;;;;;4346180;33;44934;-79
2021/10/12 10:19:01;;;;;;;;;;;12.80;95.00;;;;;;4346546;33;43440;-80
2021/10/12 10:21:28;;;;;;;;;;;12.80;95.00;;;;;;4359896;33;42961;-80
2021/10/12 10:24:42;;;;;;;;;;;12.80;95.00;;;;;;4346262;33;42790;-80
2021/10/12 10:26:44;;;;;;;;;;;12.80;95.00;;;;;;4354534;33;43276;-80
2021/10/12 10:29:28;;;;;;;;;;;12.80;95.10;;;;;;4346412;33;43458;-79
2021/10/12 10:32:20;;;;;;;;;;;12.80;95.00;;;;;;4348686;33;44716;-80
2021/10/12 10:35:00;;;;;;;;;;;12.80;95.00;;;;;;4346060;33;43388;-80
2021/10/12 10:37:30;;;;;;;;;;;12.80;95.10;;;;;;4359907;33;45471;-80
2021/10/12 10:39:57;;;;;;;;;;;12.80;95.10;;;;;;4359380;33;43765;-81
2021/10/12 10:42:27;;;;;;;;;;;12.80;95.10;;;;;;4346495;33;43332;-81
2021/10/12 10:45:00;;;;;;;;;;;12.80;95.10;;;;;;4346054;33;43040;-79
2021/10/12 10:47:42;;;;;;;;;;;12.80;95.20;;;;;;4359726;33;44077;-79
2021/10/12 10:50:15;;;;;;;;;;;12.80;95.20;;;;;;4359297;33;42763;-80
2021/10/12 10:52:47;;;;;;;;;;;12.80;95.20;;;;;;4346552;33;43917;-80
2021/10/12 10:55:20;;;;;;;;;;;12.80;95.30;;;;;;4359396;32;45172;-80
2021/10/12 10:58:05;;;;;;;;;;;12.90;95.20;;;;;;4362128;32;42468;-80
2021/10/12 11:00:36;;;;;;;;;;;12.90;95.30;;;;;;4348928;32;42757;-80
2021/10/12 11:03:03;;;;;;;;;;;12.80;95.20;;;;;;4348520;32;44948;-79
2021/10/12 11:05:35;;;;;;;;;;;12.80;95.30;;;;;;4361963;32;43214;-81
2021/10/12 11:08:12;;;;;;;;;;;12.80;95.30;;;;;;4349171;32;43806;-80
2021/10/12 11:10:44;;;;;;;;;;;12.90;95.40;;;;;;4348934;32;42730;-80
2021/10/12 11:13:25;;;;;;;;;;;12.90;95.40;;;;;;4361921;32;43868;-80
2021/10/12 11:15:52;;;;;;;;;;;12.90;95.40;;;;;;4348919;32;43073;-80
2021/10/12 11:18:19;;;;;;;;;;;12.90;95.40;;;;;;4361886;32;42864;-80
2021/10/12 11:20:51;;;;;;;;;;;12.90;95.40;;;;;;4348345;32;45331;-80
2021/10/12 11:23:24;;;;;;;;;;;12.90;95.50;;;;;;4361865;32;43297;-80
2021/10/12 11:26:11;;;;;;;;;;;12.90;95.50;;;;;;4361668;32;43482;-80
2021/10/12 11:28:46;;;;;;;;;;;12.90;95.50;;;;;;4348831;32;43223;-79
2021/10/12 11:31:15;;;;;;;;;;;12.90;95.50;;;;;;4348673;32;46047;-80
2021/10/12 11:33:46;;;;;;;;;;;12.90;95.50;;;;;;4362018;32;43028;-80
2021/10/12 11:36:25;;;;;;;;;;;12.90;95.60;;;;;;4361913;32;43521;-80
2021/10/12 11:38:59;;;;;;;;;;;12.90;95.60;;;;;;4348490;32;45996;-80
2021/10/12 11:41:36;;;;;;;;;;;12.90;95.60;;;;;;4361956;32;45094;-80
2021/10/12 11:44:15;;;;;;;;;;;12.90;95.60;;;;;;4361965;32;44201;-80
2021/10/12 11:46:48;;;;;;;;;;;12.90;95.70;;;;;;4361820;32;45722;-80
2021/10/12 11:49:17;;;;;;;;;;;12.90;95.70;;;;;;4348520;32;44308;-80
2021/10/12 11:51:53;;;;;;;;;;;12.90;95.70;;;;;;4361912;32;45216;-80
2021/10/12 11:54:27;;;;;;;;;;;12.90;95.70;;;;;;4348458;32;44663;-80
2021/10/12 11:56:57;;;;;;;;;;;12.90;95.70;;;;;;4361152;32;46094;-80
2021/10/12 11:59:31;;;;;;;;;;;12.90;95.70;;;;;;4348450;32;43109;-81
2021/10/12 12:02:00;;;;;;;;;;;12.90;95.70;;;;;;4361540;32;44214;-80
2021/10/12 12:04:33;;;;;;;;;;;12.90;95.80;;;;;;4361126;32;45251;-81
2021/10/12 12:07:06;;;;;;;;;;;12.90;95.80;;;;;;4360930;32;43508;-80
2021/10/12 12:09:42;;;;;;;;;;;13.00;95.80;;;;;;4362418;32;20035;-80
2021/10/12 12:12:09;;;;;;;;;;;13.00;96.20;;;;;;4361488;32;44110;-80
2021/10/12 12:14:42;;;;;;;;;;;13.00;95.80;;;;;;4347635;32;43463;-80
2021/10/12 12:17:17;;;;;;;;;;;13.00;95.90;;;;;;4348225;32;45890;-80
2021/10/12 12:19:55;;;;;;;;;;;13.00;95.80;;;;;;4348037;32;43183;-81
2021/10/12 12:22:26;;;;;;;;;;;13.00;95.80;;;;;;4348538;32;45230;-80
2021/10/12 12:25:03;;;;;;;;;;;13.00;95.90;;;;;;4347488;32;43362;-80
2021/10/12 12:27:50;;;;;;;;;;;13.00;95.90;;;;;;4361253;32;44266;-80
2021/10/12 12:30:20;;;;;;;;;;;13.00;95.90;;;;;;4347400;32;45971;-81
2021/10/12 12:32:56;;;;;;;;;;;13.00;95.90;;;;;;4347383;32;44303;-80
2021/10/12 12:35:25;;;;;;;;;;;13.00;95.90;;;;;;4361199;32;44264;-81
2021/10/12 12:37:56;;;;;;;;;;;13.00;95.90;;;;;;4360963;32;44501;-80
2021/10/12 12:40:27;;;;;;;;;;;13.00;95.90;;;;;;4348335;32;20007;-81
2021/10/12 12:42:55;;;;;;;;;;;13.00;95.90;;;;;;4347885;32;44494;-82
2021/10/12 12:45:23;;;;;;;;;;;13.00;95.90;;;;;;4347690;32;43350;-81
2021/10/12 12:47:51;;;;;;;;;;;13.00;95.90;;;;;;4347581;32;43456;-81
2021/10/12 12:50:25;;;;;;;;;;;13.00;96.00;;;;;;4347153;32;43443;-81
2021/10/12 12:52:53;;;;;;;;;;;13.00;96.00;;;;;;4347431;32;43775;-81
2021/10/12 12:55:35;;;;;;;;;;;13.10;96.00;;;;;;4347352;32;43008;-80
2021/10/12 12:58:03;;;;;;;;;;;13.10;96.00;;;;;;4347571;32;43422;-81
2021/10/12 13:00:31;;;;;;;;;;;13.00;96.00;;;;;;4360765;32;43267;-81
2021/10/12 13:02:59;;;;;;;;;;;13.00;96.10;;;;;;4360434;32;43191;-81
2021/10/12 13:05:27;;;;;;;;;;;13.00;96.10;;;;;;4360641;32;46004;-81
2021/10/12 13:07:55;;;;;;;;;;;13.00;96.10;;;;;;4360781;32;44236;-80
2021/10/12 13:10:34;;;;;;;;;;;13.00;96.20;;;;;;4347200;32;43017;-80
2021/10/12 13:13:04;;;;;;;;;;;13.00;96.20;;;;;;4361506;32;20047;-81
2021/10/12 13:15:39;;;;;;;;;;;13.00;96.20;;;;;;4347595;32;45181;-81
2021/10/12 13:18:12;;;;;;;;;;;13.00;96.20;;;;;;4360399;32;44946;-81
2021/10/12 13:20:42;;;;;;;;;;;13.00;96.10;;;;;;4347114;32;45101;-80
2021/10/12 13:23:10;;;;;;;;;;;13.10;96.20;;;;;;4360488;32;44170;-81
2021/10/12 13:25:46;;;;;;;;;;;13.10;96.20;;;;;;4346948;32;43594;-81
2021/10/12 13:28:13;;;;;;;;;;;13.10;96.20;;;;;;4347123;32;43527;-81
2021/10/12 13:30:41;;;;;;;;;;;13.10;96.60;;;;;;4347291;32;43469;-80
2021/10/12 13:33:09;;;;;;;;;;;13.10;96.20;;;;;;4359917;32;42782;-83
2021/10/12 13:35:36;;;;;;;;;;;13.10;96.20;;;;;;4360380;32;43282;-82
2021/10/12 13:38:03;;;;;;;;;;;13.10;96.20;;;;;;4359759;32;43506;-81
2021/10/12 13:40:30;;;;;;;;;;;13.10;96.10;;;;;;4359977;32;43210;-81
2021/10/12 13:42:57;;;;;;;;;;;13.10;96.10;;;;;;4359992;32;42982;-80
2021/10/12 13:45:24;;;;;;;;;;;13.10;96.10;;;;;;4346761;32;43549;-81
2021/10/12 13:47:51;;;;;;;;;;;13.10;96.10;;;;;;4346761;32;44059;-80
2021/10/12 13:50:18;;;;;;;;;;;13.10;96.00;;;;;;4360154;32;42795;-80
2021/10/12 13:52:45;;;;;;;;;;;13.10;96.00;;;;;;4346834;32;42619;-81
2021/10/12 13:55:13;;;;;;;;;;;13.10;96.10;;;;;;4346319;32;44735;-81
2021/10/12 13:57:40;;;;;;;;;;;13.10;96.00;;;;;;4359597;32;45890;-81
2021/10/12 14:00:08;;;;;;;;;;;13.10;96.10;;;;;;4360169;32;44004;-80
2021/10/12 14:02:37;;;;;;;;;;;13.10;96.10;;;;;;4346569;32;43166;-80
2021/10/12 14:05:06;;;;;;;;;;;13.10;96.10;;;;;;4359992;32;44115;-81
2021/10/12 14:07:33;;;;;;;;;;;13.00;96.00;;;;;;4346148;33;44513;-80
2021/10/12 14:10:01;;;;;;;;;;;13.00;96.00;;;;;;4346306;33;42820;-80
2021/10/12 14:12:28;;;;;;;;;;;13.00;96.00;;;;;;4346345;33;44724;-80
2021/10/12 14:14:56;;;;;;;;;;;13.00;96.00;;;;;;4360051;33;44816;-80
2021/10/12 14:17:27;;;;;;;;;;;13.00;96.00;;;;;;4346736;33;43253;-80
2021/10/12 14:20:10;;;;;;;;;;;13.00;96.00;;;;;;4348396;33;44027;-80
2021/10/12 14:22:40;;;;;;;;;;;13.00;96.00;;;;;;4359526;33;43201;-80
2021/10/12 14:25:08;;;;;;;;;;;13.00;96.00;;;;;;4360038;33;44156;-81
2021/10/12 14:27:35;;;;;;;;;;;13.00;96.10;;;;;;4359874;33;42012;-80
2021/10/12 14:30:03;;;;;;;;;;;13.00;96.10;;;;;;4359745;32;43877;-81
2021/10/12 14:32:30;;;;;;;;;;;13.00;96.10;;;;;;4362846;32;44319;-81
2021/10/12 14:34:57;;;;;;;;;;;13.00;96.10;;;;;;4362380;32;43814;-80
2021/10/12 14:37:27;;;;;;;;;;;13.00;96.10;;;;;;4362370;32;44341;-81
2021/10/12 14:39:57;;;;;;;;;;;13.00;96.00;;;;;;4348900;32;43783;-81
2021/10/12 14:42:27;;;;;;;;;;;13.00;96.00;;;;;;4349083;32;44263;-80
2021/10/12 14:45:00;;;;;;;;;;;13.00;96.00;;;;;;4362243;32;42850;-81
2021/10/12 14:47:31;;;;;;;;;;;13.00;96.00;;;;;;4349174;32;43436;-81